Time;durP1;ratioP1;P1;durP2;ratioP2;P2;SDS_P1;SDS_P2;PMS_P1;PMS_P2;Temp;Humidity;BMP_temperature;BMP_pressure;BME280_temperature;BME280_humidity;BME280_pressure;Samples;Min_cycle;Max_cycle;Signal;HPM_P1;HPM_P2
2022/01/30 00:01:44;;;;;;;0.97;0.60;;;;;;;;;;4987958;28;20456;-65
2022/01/30 00:04:10;;;;;;;0.60;0.60;;;;;;;;;;4972755;28;20441;-65
2022/01/30 00:06:36;;;;;;;0.50;0.50;;;;;;;;;;4987637;28;20785;-64
2022/01/30 00:09:03;;;;;;;0.77;0.77;;;;;;;;;;4989448;28;20448;-65
2022/01/30 00:11:33;;;;;;;0.67;0.67;;;;;;;;;;4972899;28;20444;-65
2022/01/30 00:14:02;;;;;;;0.73;0.73;;;;;;;;;;4989855;28;20425;-65
2022/01/30 00:16:35;;;;;;;0.80;0.80;;;;;;;;;;4989693;28;20587;-65
2022/01/30 00:19:15;;;;;;;0.73;0.73;;;;;;;;;;4989020;28;20483;-68
2022/01/30 00:21:47;;;;;;;0.60;0.60;;;;;;;;;;4972179;28;20536;-65
2022/01/30 00:24:19;;;;;;;0.53;0.53;;;;;;;;;;4989937;28;20798;-65
2022/01/30 00:26:47;;;;;;;0.93;0.93;;;;;;;;;;4988243;28;21054;-65
2022/01/30 00:29:13;;;;;;;0.63;0.63;;;;;;;;;;4989411;28;20841;-64
2022/01/30 00:31:39;;;;;;;2.00;1.00;;;;;;;;;;4988540;28;20433;-65
2022/01/30 00:34:05;;;;;;;1.00;1.00;;;;;;;;;;4989398;28;20800;-65
2022/01/30 00:36:31;;;;;;;0.50;0.50;;;;;;;;;;4988808;28;20492;-64
2022/01/30 00:38:58;;;;;;;0.50;0.50;;;;;;;;;;4990028;28;21047;-64
2022/01/30 00:41:24;;;;;;;0.70;0.70;;;;;;;;;;4989606;28;20429;-65
2022/01/30 00:43:50;;;;;;;0.87;0.87;;;;;;;;;;4991204;28;20437;-64
2022/01/30 00:46:16;;;;;;;0.73;0.73;;;;;;;;;;4992718;28;20431;-65
2022/01/30 00:48:42;;;;;;;0.80;0.50;;;;;;;;;;4993850;28;20429;-65
2022/01/30 00:51:08;;;;;;;2.33;0.80;;;;;;;;;;4975730;28;20452;-65
2022/01/30 00:53:35;;;;;;;0.50;0.40;;;;;;;;;;4992615;28;20520;-65
2022/01/30 00:56:01;;;;;;;0.50;0.50;;;;;;;;;;4992728;28;20483;-66
2022/01/30 00:58:27;;;;;;;0.40;0.40;;;;;;;;;;4975303;28;20433;-64
2022/01/30 01:00:53;;;;;;;0.40;0.40;;;;;;;;;;4992947;28;20433;-64
2022/01/30 01:03:19;;;;;;;0.50;0.50;;;;;;;;;;4992627;28;20497;-65
2022/01/30 01:05:45;;;;;;;0.53;0.53;;;;;;;;;;4992310;28;20444;-65
2022/01/30 01:08:28;;;;;;;0.50;0.50;;;;;;;;;;4991484;28;20539;-65
2022/01/30 01:11:01;;;;;;;0.50;0.50;;;;;;;;;;4992602;28;20531;-66
2022/01/30 01:13:50;;;;;;;0.50;0.50;;;;;;;;;;4992326;28;20794;-64
2022/01/30 01:24:11;;;;;;;0.40;0.40;;;;;;;;;;4992561;28;20455;-65
2022/01/30 01:26:37;;;;;;;0.40;0.40;;;;;;;;;;4991162;28;20433;-65
2022/01/30 01:29:04;;;;;;;0.57;0.57;;;;;;;;;;4992308;28;20429;-65
2022/01/30 01:31:30;;;;;;;0.47;0.47;;;;;;;;;;4992544;28;20428;-65
2022/01/30 01:36:28;;;;;;;0.40;0.40;;;;;;;;;;4989783;28;20495;-64
2022/01/30 01:38:54;;;;;;;0.50;0.50;;;;;;;;;;4992284;28;20476;-65
2022/01/30 01:41:22;;;;;;;0.67;0.67;;;;;;;;;;4992493;28;20783;-64
2022/01/30 01:43:49;;;;;;;0.40;0.40;;;;;;;;;;4974558;28;20425;-65
2022/01/30 01:46:20;;;;;;;0.30;0.30;;;;;;;;;;4990516;28;20803;-64
2022/01/30 01:48:49;;;;;;;1.80;0.30;;;;;;;;;;4992149;28;20451;-65
2022/01/30 01:51:18;;;;;;;0.30;0.30;;;;;;;;;;4992282;28;20437;-66
2022/01/30 01:53:45;;;;;;;0.50;0.50;;;;;;;;;;4991269;28;20429;-64
2022/01/30 01:56:14;;;;;;;0.40;0.40;;;;;;;;;;4991152;28;20481;-64
2022/01/30 01:58:40;;;;;;;0.33;0.33;;;;;;;;;;4991547;28;20445;-65
2022/01/30 02:01:06;;;;;;;0.50;0.50;;;;;;;;;;4991731;28;21030;-64
2022/01/30 02:03:34;;;;;;;0.60;0.60;;;;;;;;;;4990587;28;20507;-65
2022/01/30 02:06:02;;;;;;;0.73;0.73;;;;;;;;;;4991801;28;20555;-65
2022/01/30 02:08:35;;;;;;;0.70;0.70;;;;;;;;;;4992103;28;20459;-64
2022/01/30 02:11:08;;;;;;;2.30;2.10;;;;;;;;;;4991947;28;21521;-65
2022/01/30 02:24:54;;;;;;;3.13;1.07;;;;;;;;;;4991369;28;20472;-64
2022/01/30 02:27:24;;;;;;;0.40;0.40;;;;;;;;;;4990734;28;20433;-64
2022/01/30 02:29:50;;;;;;;0.53;0.53;;;;;;;;;;4991565;28;20864;-65
2022/01/30 02:32:16;;;;;;;0.67;0.50;;;;;;;;;;4991491;28;20437;-65
2022/01/30 02:34:43;;;;;;;0.77;0.67;;;;;;;;;;4990717;28;20432;-66
2022/01/30 02:37:09;;;;;;;0.40;0.40;;;;;;;;;;4989498;28;20517;-64
2022/01/30 02:39:35;;;;;;;0.40;0.40;;;;;;;;;;4991241;28;20433;-65
2022/01/30 02:42:01;;;;;;;1.27;0.40;;;;;;;;;;4989476;28;20433;-65
2022/01/30 02:44:35;;;;;;;0.43;0.43;;;;;;;;;;4991294;28;20433;-64
2022/01/30 02:47:06;;;;;;;0.30;0.30;;;;;;;;;;4990590;28;20550;-65
2022/01/30 02:50:07;;;;;;;0.30;0.30;;;;;;;;;;4990842;28;20433;-65
2022/01/30 02:52:31;;;;;;;0.30;0.30;;;;;;;;;;4989819;28;20424;-64
2022/01/30 02:54:57;;;;;;;0.30;0.30;;;;;;;;;;4990435;28;20445;-65
2022/01/30 02:57:23;;;;;;;0.50;0.30;;;;;;;;;;4989917;28;21048;-65
2022/01/30 02:59:50;;;;;;;0.40;0.40;;;;;;;;;;4990324;28;20437;-65
2022/01/30 03:02:16;;;;;;;0.40;0.40;;;;;;;;;;4989859;28;20436;-65
2022/01/30 03:04:42;;;;;;;0.30;0.30;;;;;;;;;;4988955;28;20549;-64
2022/01/30 03:07:08;;;;;;;0.50;0.50;;;;;;;;;;4990537;28;20925;-65
2022/01/30 03:09:34;;;;;;;0.43;0.43;;;;;;;;;;4990924;28;20449;-64
2022/01/30 03:12:00;;;;;;;0.60;0.30;;;;;;;;;;4989707;28;20440;-64
2022/01/30 03:14:26;;;;;;;0.40;0.40;;;;;;;;;;4989067;28;20954;-64
2022/01/30 03:16:53;;;;;;;0.30;0.30;;;;;;;;;;4990009;28;20491;-64
2022/01/30 03:19:19;;;;;;;0.30;0.30;;;;;;;;;;4989872;28;20437;-65
2022/01/30 03:21:45;;;;;;;0.30;0.30;;;;;;;;;;4989565;28;20445;-67
2022/01/30 03:24:11;;;;;;;0.30;0.30;;;;;;;;;;4989946;28;20448;-64
2022/01/30 03:26:40;;;;;;;0.20;0.20;;;;;;;;;;4989453;28;20437;-64
2022/01/30 03:29:06;;;;;;;0.30;0.30;;;;;;;;;;4990337;28;20438;-66
2022/01/30 03:31:39;;;;;;;0.20;0.20;;;;;;;;;;4989904;28;20476;-65
2022/01/30 03:34:10;;;;;;;0.30;0.30;;;;;;;;;;4989909;28;20949;-65
2022/01/30 03:36:37;;;;;;;0.40;0.40;;;;;;;;;;4990009;28;20507;-64
2022/01/30 03:39:04;;;;;;;0.30;0.30;;;;;;;;;;4990185;28;20540;-64
2022/01/30 03:41:30;;;;;;;0.30;0.30;;;;;;;;;;4971734;28;20957;-64
2022/01/30 03:43:56;;;;;;;0.30;0.30;;;;;;;;;;4989898;28;20448;-64
2022/01/30 03:46:22;;;;;;;0.30;0.30;;;;;;;;;;4989623;28;20437;-64
2022/01/30 03:48:48;;;;;;;0.30;0.30;;;;;;;;;;4988684;28;20512;-64
2022/01/30 03:51:14;;;;;;;0.30;0.30;;;;;;;;;;4989557;28;20445;-64
2022/01/30 03:53:40;;;;;;;0.30;0.30;;;;;;;;;;4988995;28;20515;-65
2022/01/30 03:56:06;;;;;;;0.27;0.27;;;;;;;;;;4972045;28;20476;-65
2022/01/30 03:58:33;;;;;;;0.30;0.30;;;;;;;;;;4989483;28;20829;-64
2022/01/30 04:00:59;;;;;;;0.30;0.30;;;;;;;;;;4989284;28;20646;-64
2022/01/30 04:03:25;;;;;;;0.30;0.30;;;;;;;;;;4989194;28;20496;-64
2022/01/30 04:05:52;;;;;;;0.30;0.30;;;;;;;;;;4971206;28;21181;-64
2022/01/30 04:08:18;;;;;;;0.33;0.33;;;;;;;;;;4989479;28;20440;-64
2022/01/30 04:10:44;;;;;;;0.30;0.30;;;;;;;;;;4989233;28;20483;-64
2022/01/30 04:13:10;;;;;;;0.27;0.27;;;;;;;;;;4988606;28;20432;-64
2022/01/30 04:15:36;;;;;;;0.30;0.30;;;;;;;;;;4989665;28;20543;-64
2022/01/30 04:18:02;;;;;;;0.30;0.30;;;;;;;;;;4993333;28;20468;-64
2022/01/30 04:20:29;;;;;;;0.30;0.30;;;;;;;;;;4993541;28;20456;-65
2022/01/30 04:22:55;;;;;;;0.30;0.30;;;;;;;;;;4993780;28;20447;-64
2022/01/30 04:25:21;;;;;;;0.30;0.30;;;;;;;;;;4992062;28;20478;-65
2022/01/30 04:27:47;;;;;;;0.30;0.30;;;;;;;;;;4992439;28;20444;-64
2022/01/30 04:30:14;;;;;;;0.40;0.30;;;;;;;;;;4993685;28;20842;-64
2022/01/30 04:32:42;;;;;;;0.30;0.30;;;;;;;;;;4993489;28;20511;-65
2022/01/30 04:35:17;;;;;;;0.40;0.40;;;;;;;;;;4992015;28;20440;-65
2022/01/30 04:57:03;;;;;;;0.40;0.40;;;;;;;;;;4990297;28;20492;-67
2022/01/30 05:05:23;;;;;;;0.40;0.40;;;;;;;;;;4992406;28;20476;-65
2022/01/30 05:07:49;;;;;;;0.40;0.40;;;;;;;;;;4992107;28;20449;-65
2022/01/30 05:10:15;;;;;;;1.13;0.57;;;;;;;;;;4992677;28;20433;-65
2022/01/30 05:12:53;;;;;;;0.40;0.40;;;;;;;;;;4992128;28;20440;-65
2022/01/30 05:15:20;;;;;;;0.30;0.30;;;;;;;;;;4991951;28;20488;-64
2022/01/30 05:17:46;;;;;;;0.30;0.30;;;;;;;;;;4992071;28;20453;-64
2022/01/30 05:20:13;;;;;;;0.30;0.30;;;;;;;;;;4992785;28;20429;-65
2022/01/30 05:22:39;;;;;;;0.30;0.30;;;;;;;;;;4992680;28;20533;-65
2022/01/30 05:25:05;;;;;;;1.70;0.40;;;;;;;;;;4991280;28;20532;-66
2022/01/30 05:27:31;;;;;;;0.30;0.30;;;;;;;;;;4990458;28;20456;-64
2022/01/30 05:29:57;;;;;;;0.30;0.30;;;;;;;;;;4992331;28;20460;-65
2022/01/30 05:32:23;;;;;;;0.30;0.30;;;;;;;;;;4992308;28;20456;-65
2022/01/30 05:34:49;;;;;;;0.30;0.30;;;;;;;;;;4992139;28;20448;-65
2022/01/30 05:37:17;;;;;;;0.37;0.37;;;;;;;;;;4991103;28;20492;-65
2022/01/30 05:39:43;;;;;;;0.40;0.40;;;;;;;;;;4991636;28;20429;-64
2022/01/30 05:42:10;;;;;;;0.50;0.43;;;;;;;;;;4992575;28;20457;-65
2022/01/30 05:44:58;;;;;;;0.40;0.40;;;;;;;;;;4992203;28;20425;-64
2022/01/30 05:47:35;;;;;;;0.30;0.30;;;;;;;;;;4991523;28;20552;-64
2022/01/30 05:50:01;;;;;;;0.30;0.30;;;;;;;;;;4991451;28;20494;-64
2022/01/30 05:52:27;;;;;;;0.30;0.30;;;;;;;;;;4991037;28;20441;-64
2022/01/30 05:54:53;;;;;;;0.40;0.40;;;;;;;;;;4992204;28;20439;-64
2022/01/30 05:57:19;;;;;;;0.40;0.40;;;;;;;;;;4990736;28;20480;-63
2022/01/30 05:59:45;;;;;;;0.70;0.70;;;;;;;;;;4992099;28;20865;-64
2022/01/30 06:02:11;;;;;;;0.47;0.47;;;;;;;;;;4991927;28;20440;-64
2022/01/30 06:04:37;;;;;;;5.30;0.80;;;;;;;;;;4990893;28;20862;-66
2022/01/30 06:07:03;;;;;;;0.60;0.60;;;;;;;;;;4991292;28;20424;-65
2022/01/30 06:09:29;;;;;;;0.93;0.87;;;;;;;;;;4991738;28;20487;-65
2022/01/30 06:11:55;;;;;;;1.63;1.53;;;;;;;;;;4991577;28;20433;-65
2022/01/30 06:14:22;;;;;;;1.60;0.80;;;;;;;;;;4991775;28;20449;-65
2022/01/30 06:16:49;;;;;;;1.30;1.30;;;;;;;;;;4990930;28;21056;-64
2022/01/30 06:19:18;;;;;;;1.97;1.87;;;;;;;;;;4991660;28;20837;-68
2022/01/30 06:21:43;;;;;;;21.57;4.20;;;;;;;;;;4989774;28;20453;-65
2022/01/30 06:24:09;;;;;;;13.17;3.00;;;;;;;;;;4990926;28;20571;-64
2022/01/30 06:26:36;;;;;;;18.00;3.43;;;;;;;;;;4989888;28;20440;-65
2022/01/30 06:29:02;;;;;;;5.70;1.10;;;;;;;;;;4990560;28;20440;-65
2022/01/30 06:31:28;;;;;;;1.73;1.20;;;;;;;;;;4991918;28;20459;-64
2022/01/30 06:33:54;;;;;;;0.63;0.60;;;;;;;;;;4990689;28;20437;-64
2022/01/30 06:36:20;;;;;;;2.67;0.90;;;;;;;;;;4990781;28;20627;-64
2022/01/30 06:38:46;;;;;;;0.40;0.40;;;;;;;;;;4990422;28;20560;-64
2022/01/30 06:41:12;;;;;;;5.70;0.83;;;;;;;;;;4990403;28;20448;-64
2022/01/30 06:43:38;;;;;;;0.73;0.73;;;;;;;;;;4990981;28;20429;-64
2022/01/30 06:46:04;;;;;;;0.90;0.50;;;;;;;;;;4990817;28;20957;-64
2022/01/30 06:48:30;;;;;;;1.53;1.00;;;;;;;;;;4991152;28;20420;-64
2022/01/30 06:50:56;;;;;;;1.37;0.70;;;;;;;;;;4990719;28;20499;-64
2022/01/30 06:53:24;;;;;;;1.23;1.23;;;;;;;;;;4989647;28;20432;-64
2022/01/30 06:55:50;;;;;;;2.60;2.20;;;;;;;;;;4989869;28;20473;-68
2022/01/30 06:58:16;;;;;;;8.03;1.70;;;;;;;;;;4973729;28;20439;-67
2022/01/30 07:00:42;;;;;;;0.87;0.87;;;;;;;;;;4990586;28;20518;-65
2022/01/30 07:03:08;;;;;;;1.07;0.50;;;;;;;;;;4990865;28;20442;-69
2022/01/30 07:05:34;;;;;;;0.50;0.50;;;;;;;;;;4989749;28;20448;-71
2022/01/30 07:08:00;;;;;;;0.60;0.60;;;;;;;;;;4990019;28;20811;-70
2022/01/30 07:10:26;;;;;;;0.70;0.70;;;;;;;;;;4990021;28;20444;-73
2022/01/30 07:12:52;;;;;;;0.80;0.80;;;;;;;;;;4990428;28;20657;-68
2022/01/30 07:15:19;;;;;;;1.10;1.10;;;;;;;;;;4989909;28;20447;-70
2022/01/30 07:17:46;;;;;;;1.90;1.80;;;;;;;;;;4972979;28;20491;-75
2022/01/30 07:20:12;;;;;;;3.07;2.77;;;;;;;;;;4990244;28;20584;-70
2022/01/30 07:22:38;;;;;;;2.03;1.83;;;;;;;;;;4989909;28;20452;-70
2022/01/30 07:25:07;;;;;;;0.60;0.60;;;;;;;;;;4990599;28;20945;-67
2022/01/30 07:27:34;;;;;;;0.80;0.80;;;;;;;;;;4988664;28;20456;-65
2022/01/30 07:30:00;;;;;;;1.10;1.10;;;;;;;;;;4989964;28;20432;-72
2022/01/30 07:32:26;;;;;;;0.70;0.70;;;;;;;;;;4989917;28;20437;-67
2022/01/30 07:34:52;;;;;;;0.83;0.83;;;;;;;;;;4988716;28;20826;-69
2022/01/30 07:37:19;;;;;;;0.80;0.80;;;;;;;;;;4989805;28;20572;-69
2022/01/30 07:39:46;;;;;;;0.60;0.60;;;;;;;;;;4988532;28;20897;-65
2022/01/30 07:42:12;;;;;;;0.50;0.50;;;;;;;;;;4989464;28;20523;-66
2022/01/30 07:44:38;;;;;;;0.80;0.80;;;;;;;;;;4989501;28;20433;-65
2022/01/30 07:47:04;;;;;;;1.17;1.17;;;;;;;;;;4989098;28;20560;-67
2022/01/30 07:49:31;;;;;;;1.33;0.80;;;;;;;;;;4971971;28;21944;-71
2022/01/30 07:51:57;;;;;;;0.57;0.57;;;;;;;;;;4988040;28;20467;-71
2022/01/30 07:54:22;;;;;;;0.90;0.90;;;;;;;;;;4989786;28;20484;-66
2022/01/30 07:56:48;;;;;;;2.53;0.73;;;;;;;;;;4971685;28;21024;-68
2022/01/30 07:59:14;;;;;;;0.70;0.70;;;;;;;;;;4973062;28;20425;-67
2022/01/30 08:01:40;;;;;;;1.03;0.60;;;;;;;;;;4972324;28;20786;-68
2022/01/30 08:04:07;;;;;;;0.63;0.63;;;;;;;;;;4989635;28;20437;-66
2022/01/30 08:06:35;;;;;;;0.87;0.87;;;;;;;;;;4988644;28;20433;-68
2022/01/30 08:09:01;;;;;;;0.80;0.80;;;;;;;;;;4988206;28;20478;-68
2022/01/30 08:11:27;;;;;;;1.17;1.17;;;;;;;;;;4985606;28;20484;-69
2022/01/30 08:13:53;;;;;;;1.20;1.20;;;;;;;;;;4988664;28;20863;-66
2022/01/30 08:16:20;;;;;;;1.30;0.90;;;;;;;;;;4989094;28;20493;-65
2022/01/30 08:18:47;;;;;;;1.00;1.00;;;;;;;;;;4971162;28;20437;-65
2022/01/30 08:21:12;;;;;;;0.80;0.80;;;;;;;;;;4989263;28;20429;-65
2022/01/30 08:23:38;;;;;;;0.97;0.97;;;;;;;;;;4987707;28;20514;-69
2022/01/30 08:26:04;;;;;;;0.73;0.73;;;;;;;;;;4987672;28;20441;-65
2022/01/30 08:28:30;;;;;;;0.80;0.80;;;;;;;;;;4988038;28;20480;-65
2022/01/30 08:30:56;;;;;;;1.43;1.43;;;;;;;;;;4987336;28;21003;-65
2022/01/30 08:33:23;;;;;;;1.67;1.57;;;;;;;;;;4988076;28;20801;-73
2022/01/30 08:35:50;;;;;;;1.20;1.20;;;;;;;;;;4988698;28;20524;-69
2022/01/30 08:38:18;;;;;;;1.10;1.10;;;;;;;;;;4987849;28;20444;-66
2022/01/30 08:40:44;;;;;;;1.10;1.10;;;;;;;;;;4988294;28;20194;-75
2022/01/30 08:43:10;;;;;;;0.90;0.90;;;;;;;;;;4970673;28;20479;-69
2022/01/30 08:45:37;;;;;;;1.10;1.10;;;;;;;;;;4970269;28;20926;-70
2022/01/30 08:48:03;;;;;;;1.17;0.87;;;;;;;;;;4985824;28;20433;-67
2022/01/30 08:50:29;;;;;;;3.30;1.20;;;;;;;;;;4988440;28;20795;-67
2022/01/30 08:52:55;;;;;;;1.40;1.40;;;;;;;;;;4970745;28;21016;-67
2022/01/30 08:55:21;;;;;;;2.10;2.00;;;;;;;;;;4989169;28;20434;-68
2022/01/30 08:57:47;;;;;;;1.83;1.73;;;;;;;;;;4988324;28;20437;-68
2022/01/30 09:00:15;;;;;;;1.53;1.43;;;;;;;;;;4988640;28;20519;-66
2022/01/30 09:02:41;;;;;;;6.13;2.53;;;;;;;;;;4986565;28;21019;-65
2022/01/30 09:05:07;;;;;;;1.73;1.63;;;;;;;;;;4993507;28;20480;-67
2022/01/30 09:07:34;;;;;;;3.03;2.83;;;;;;;;;;4990897;28;20445;-67
2022/01/30 09:10:00;;;;;;;1.17;1.17;;;;;;;;;;4990599;28;20949;-71
2022/01/30 09:12:26;;;;;;;1.20;1.20;;;;;;;;;;4991722;28;20445;-66
2022/01/30 09:14:53;;;;;;;1.80;1.70;;;;;;;;;;4991869;28;21830;-66
2022/01/30 09:17:19;;;;;;;7.50;5.20;;;;;;;;;;4974078;28;20480;-66
2022/01/30 09:19:46;;;;;;;2.03;1.90;;;;;;;;;;4992221;28;20859;-68
2022/01/30 09:22:14;;;;;;;2.00;2.00;;;;;;;;;;4990140;28;20532;-69
2022/01/30 09:24:40;;;;;;;2.60;2.50;;;;;;;;;;4973656;28;20928;-68
2022/01/30 09:27:07;;;;;;;1.23;1.23;;;;;;;;;;4991042;28;20445;-68
2022/01/30 09:29:34;;;;;;;1.70;1.70;;;;;;;;;;4992852;28;20909;-66
2022/01/30 09:32:00;;;;;;;1.27;1.27;;;;;;;;;;4991060;28;20473;-67
2022/01/30 09:34:26;;;;;;;2.57;2.47;;;;;;;;;;4991899;28;20432;-67
2022/01/30 09:36:52;;;;;;;11.43;7.23;;;;;;;;;;4990712;28;20523;-70
2022/01/30 09:39:18;;;;;;;9.83;7.73;;;;;;;;;;4974835;28;20437;-66
2022/01/30 09:41:44;;;;;;;7.43;6.73;;;;;;;;;;4991903;28;21072;-70
2022/01/30 09:44:11;;;;;;;3.07;2.97;;;;;;;;;;4991989;28;21123;-73
2022/01/30 09:46:42;;;;;;;1.83;1.83;;;;;;;;;;4991738;28;20432;-66
2022/01/30 09:49:08;;;;;;;2.60;2.50;;;;;;;;;;4992135;28;20499;-69
2022/01/30 09:51:35;;;;;;;2.73;1.97;;;;;;;;;;4991046;28;20449;-68
2022/01/30 09:54:01;;;;;;;3.37;3.27;;;;;;;;;;4991716;28;20425;-66
2022/01/30 09:56:27;;;;;;;2.40;2.40;;;;;;;;;;4990772;28;20459;-66
2022/01/30 09:58:53;;;;;;;3.20;3.10;;;;;;;;;;4991642;28;20437;-66
2022/01/30 10:01:19;;;;;;;4.63;4.27;;;;;;;;;;4980586;28;20448;-66
2022/01/30 10:03:48;;;;;;;3.20;3.10;;;;;;;;;;4986137;28;20440;-66
2022/01/30 10:06:19;;;;;;;4.97;2.53;;;;;;;;;;4989338;28;20445;-67
2022/01/30 10:08:47;;;;;;;2.53;2.43;;;;;;;;;;4988360;28;20440;-67
2022/01/30 10:11:27;;;;;;;1.63;1.63;;;;;;;;;;4985443;28;20432;-68
2022/01/30 10:14:14;;;;;;;2.27;2.07;;;;;;;;;;4969752;28;20440;-66
2022/01/30 10:16:44;;;;;;;1.80;1.80;;;;;;;;;;4987694;28;20488;-67
2022/01/30 10:19:11;;;;;;;2.97;2.87;;;;;;;;;;4983589;28;20444;-71
2022/01/30 10:21:37;;;;;;;3.07;2.60;;;;;;;;;;4988262;28;20437;-68
2022/01/30 10:24:22;;;;;;;3.00;1.93;;;;;;;;;;4984790;28;20441;-69
2022/01/30 10:26:48;;;;;;;7.80;5.07;;;;;;;;;;4988084;28;20444;-67
2022/01/30 10:29:32;;;;;;;3.20;2.90;;;;;;;;;;4986892;28;20444;-66
2022/01/30 10:31:58;;;;;;;1.93;1.30;;;;;;;;;;4989715;28;20440;-66
2022/01/30 10:34:26;;;;;;;2.37;2.27;;;;;;;;;;4987762;28;20452;-67
2022/01/30 10:37:10;;;;;;;2.83;2.17;;;;;;;;;;4987351;28;20518;-66
2022/01/30 10:39:52;;;;;;;2.47;2.37;;;;;;;;;;4990371;28;20433;-70
2022/01/30 10:42:33;;;;;;;5.17;4.70;;;;;;;;;;4983449;28;20450;-68
2022/01/30 10:44:59;;;;;;;2.00;1.90;;;;;;;;;;4987786;28;20432;-67
2022/01/30 10:47:25;;;;;;;4.03;3.90;;;;;;;;;;4986203;28;20433;-70
2022/01/30 10:49:51;;;;;;;11.37;7.07;;;;;;;;;;4988317;28;20440;-66
2022/01/30 10:52:17;;;;;;;33.17;17.00;;;;;;;;;;4986651;28;20438;-66
2022/01/30 10:54:43;;;;;;;26.77;14.40;;;;;;;;;;4989960;28;20441;-72
2022/01/30 10:57:10;;;;;;;10.43;7.43;;;;;;;;;;4969312;28;20584;-66
2022/01/30 10:59:42;;;;;;;71.97;36.10;;;;;;;;;;4990129;28;20456;-68
2022/01/30 11:02:11;;;;;;;21.83;14.90;;;;;;;;;;4987249;28;20441;-68
2022/01/30 11:04:37;;;;;;;60.30;27.53;;;;;;;;;;4989709;28;20946;-70
2022/01/30 11:07:04;;;;;;;6.73;5.93;;;;;;;;;;4987493;28;20437;-70
2022/01/30 11:09:41;;;;;;;6.10;2.73;;;;;;;;;;4989867;28;20436;-67
2022/01/30 11:12:11;;;;;;;4.13;3.83;;;;;;;;;;4986668;28;20461;-66
2022/01/30 11:17:27;;;;;;;9.10;1.93;;;;;;;;;;4956609;28;20511;-67
2022/01/30 11:19:54;;;;;;;2.20;1.70;;;;;;;;;;4990476;28;20444;-67
2022/01/30 11:22:21;;;;;;;2.93;2.67;;;;;;;;;;4987022;28;20540;-68
2022/01/30 11:24:47;;;;;;;4.13;3.83;;;;;;;;;;4989114;28;20515;-66
2022/01/30 11:27:14;;;;;;;8.73;7.93;;;;;;;;;;4968716;28;20817;-66
2022/01/30 11:29:40;;;;;;;5.73;5.23;;;;;;;;;;4989289;28;20445;-70
2022/01/30 11:32:07;;;;;;;6.17;4.10;;;;;;;;;;4987272;28;20555;-68
2022/01/30 11:34:37;;;;;;;3.20;2.50;;;;;;;;;;4989134;28;20456;-70
2022/01/30 11:37:03;;;;;;;3.22;2.75;;;;;;;;;;4985161;28;20452;-65
2022/01/30 11:39:29;;;;;;;5.33;3.73;;;;;;;;;;4989188;28;20781;-67
2022/01/30 11:42:08;;;;;;;1.70;1.60;;;;;;;;;;4985193;28;20477;-69
2022/01/30 11:44:35;;;;;;;2.33;2.27;;;;;;;;;;4989558;28;20441;-68
2022/01/30 11:47:04;;;;;;;5.13;2.20;;;;;;;;;;4986676;28;20487;-69
2022/01/30 11:49:43;;;;;;;1.83;1.63;;;;;;;;;;4989286;28;20439;-70
2022/01/30 11:52:10;;;;;;;5.20;3.50;;;;;;;;;;4968053;28;20449;-71
2022/01/30 11:54:37;;;;;;;1.93;1.83;;;;;;;;;;4969822;28;20500;-68
2022/01/30 11:57:21;;;;;;;3.33;1.33;;;;;;;;;;4984868;28;20527;-72
2022/01/30 11:59:51;;;;;;;2.30;2.20;;;;;;;;;;4986202;28;20467;-66
2022/01/30 12:02:27;;;;;;;2.70;1.70;;;;;;;;;;4985221;28;21035;-70
2022/01/30 12:05:00;;;;;;;5.40;4.40;;;;;;;;;;4988246;28;20429;-71
2022/01/30 12:07:35;;;;;;;5.13;1.70;;;;;;;;;;4987255;28;20444;-74
2022/01/30 12:10:16;;;;;;;5.13;2.70;;;;;;;;;;4989287;28;20516;-67
2022/01/30 12:12:56;;;;;;;3.70;1.53;;;;;;;;;;4986982;28;20939;-72
2022/01/30 12:15:41;;;;;;;4.10;1.93;;;;;;;;;;4988288;28;20444;-71
2022/01/30 12:18:11;;;;;;;5.47;1.73;;;;;;;;;;4969132;28;20966;-71
2022/01/30 12:20:56;;;;;;;1.80;1.30;;;;;;;;;;4990002;28;20580;-68
2022/01/30 12:23:29;;;;;;;2.30;1.67;;;;;;;;;;4987053;28;20469;-72
2022/01/30 12:26:03;;;;;;;5.80;1.57;;;;;;;;;;4987688;28;20445;-68
2022/01/30 12:28:48;;;;;;;5.67;2.40;;;;;;;;;;4970361;28;20440;-70
2022/01/30 12:31:47;;;;;;;5.50;1.13;;;;;;;;;;4986532;28;20952;-70
2022/01/30 12:34:16;;;;;;;2.73;2.20;;;;;;;;;;4945784;28;20458;-67
2022/01/30 12:36:55;;;;;;;2.13;1.93;;;;;;;;;;4986674;28;20485;-69
2022/01/30 12:39:23;;;;;;;3.43;1.53;;;;;;;;;;4992923;28;20498;-71
2022/01/30 12:41:49;;;;;;;4.10;1.47;;;;;;;;;;4971957;28;20444;-69
2022/01/30 12:44:16;;;;;;;8.80;2.47;;;;;;;;;;4992164;28;20421;-66
2022/01/30 12:46:47;;;;;;;4.80;1.80;;;;;;;;;;4990650;28;20428;-66
2022/01/30 12:49:15;;;;;;;6.63;2.03;;;;;;;;;;4993612;28;20430;-73
2022/01/30 12:51:42;;;;;;;3.57;1.30;;;;;;;;;;4990604;28;20955;-65
2022/01/30 12:54:08;;;;;;;2.83;2.07;;;;;;;;;;4975048;28;20953;-68
2022/01/30 12:56:36;;;;;;;4.70;2.03;;;;;;;;;;4989413;28;20867;-67
2022/01/30 12:59:09;;;;;;;4.10;2.07;;;;;;;;;;4993285;28;20425;-70
2022/01/30 13:01:39;;;;;;;1.83;1.63;;;;;;;;;;4991292;28;20507;-67
2022/01/30 13:04:05;;;;;;;4.57;1.50;;;;;;;;;;4992301;28;20507;-66
2022/01/30 13:06:32;;;;;;;1.70;1.60;;;;;;;;;;4989136;28;21907;-69
2022/01/30 13:08:58;;;;;;;2.07;1.20;;;;;;;;;;4993445;28;20417;-67
2022/01/30 13:11:24;;;;;;;5.97;2.00;;;;;;;;;;4989293;28;20435;-66
2022/01/30 13:13:57;;;;;;;4.13;1.50;;;;;;;;;;4992888;28;20443;-68
2022/01/30 13:16:24;;;;;;;6.20;1.30;;;;;;;;;;4989723;28;20472;-69
2022/01/30 13:18:50;;;;;;;3.57;2.23;;;;;;;;;;4992330;28;20444;-66
2022/01/30 13:21:21;;;;;;;3.47;2.37;;;;;;;;;;4990185;28;20414;-66
2022/01/30 13:23:47;;;;;;;5.63;1.43;;;;;;;;;;4992795;28;21390;-70
2022/01/30 13:26:27;;;;;;;2.00;1.70;;;;;;;;;;4987702;28;20453;-69
2022/01/30 13:28:53;;;;;;;5.83;1.50;;;;;;;;;;4993282;28;20943;-67
2022/01/30 13:31:19;;;;;;;1.67;1.47;;;;;;;;;;4990002;28;20460;-66
2022/01/30 13:33:44;;;;;;;1.93;1.00;;;;;;;;;;4975599;28;20429;-66
2022/01/30 13:36:22;;;;;;;13.17;1.63;;;;;;;;;;4985773;28;20523;-69
2022/01/30 13:38:48;;;;;;;3.20;1.80;;;;;;;;;;4991484;28;20504;-70
2022/01/30 13:41:29;;;;;;;5.50;2.20;;;;;;;;;;4987713;28;20452;-67
2022/01/30 13:43:57;;;;;;;7.03;1.27;;;;;;;;;;4992127;28;20467;-70
2022/01/30 13:49:10;;;;;;;4.93;1.40;;;;;;;;;;4989073;28;20480;-68
2022/01/30 13:51:36;;;;;;;9.13;1.97;;;;;;;;;;4986589;28;20575;-67
2022/01/30 13:54:10;;;;;;;1.10;1.10;;;;;;;;;;4972996;28;20921;-66
2022/01/30 13:56:36;;;;;;;15.93;2.43;;;;;;;;;;4970732;28;20516;-66
2022/01/30 13:59:02;;;;;;;3.43;1.37;;;;;;;;;;4991326;28;20459;-67
2022/01/30 14:01:33;;;;;;;10.43;2.23;;;;;;;;;;4987730;28;20464;-72
2022/01/30 14:04:11;;;;;;;5.23;1.47;;;;;;;;;;4990340;28;20933;-67
2022/01/30 14:06:37;;;;;;;6.20;1.53;;;;;;;;;;4987361;28;20460;-75
2022/01/30 14:09:04;;;;;;;8.47;1.60;;;;;;;;;;4986436;28;20456;-70
2022/01/30 14:11:30;;;;;;;5.50;1.87;;;;;;;;;;4986824;28;20464;-70
2022/01/30 14:14:04;;;;;;;4.97;2.43;;;;;;;;;;4990968;28;20423;-74
2022/01/30 14:16:36;;;;;;;6.80;1.30;;;;;;;;;;4986915;28;20992;-67
2022/01/30 14:19:02;;;;;;;2.93;1.20;;;;;;;;;;4986811;28;20484;-68
2022/01/30 14:21:31;;;;;;;3.63;1.80;;;;;;;;;;4987456;28;20437;-70
2022/01/30 14:23:57;;;;;;;5.70;2.33;;;;;;;;;;4988224;28;20500;-73
2022/01/30 14:26:24;;;;;;;4.53;1.97;;;;;;;;;;4985907;28;20512;-69
2022/01/30 14:29:07;;;;;;;3.30;1.93;;;;;;;;;;4989893;28;20445;-67
2022/01/30 14:31:33;;;;;;;2.30;0.97;;;;;;;;;;4987791;28;21040;-70
2022/01/30 14:33:59;;;;;;;3.97;1.73;;;;;;;;;;4988114;28;20449;-68
2022/01/30 14:36:29;;;;;;;5.90;1.60;;;;;;;;;;4977711;28;20489;-68
2022/01/30 14:38:56;;;;;;;3.27;1.30;;;;;;;;;;4955716;28;20496;-71
2022/01/30 14:41:22;;;;;;;6.53;1.60;;;;;;;;;;4977919;28;20472;-69
2022/01/30 14:43:47;;;;;;;4.23;1.53;;;;;;;;;;4989479;28;20464;-67
2022/01/30 14:46:14;;;;;;;8.47;2.50;;;;;;;;;;4984903;28;20819;-66
2022/01/30 14:48:40;;;;;;;11.10;3.70;;;;;;;;;;4969540;28;20441;-70
2022/01/30 14:51:07;;;;;;;3.53;2.27;;;;;;;;;;4986347;28;20456;-68
2022/01/30 14:53:33;;;;;;;10.13;1.93;;;;;;;;;;4981163;28;20444;-67
2022/01/30 14:55:59;;;;;;;2.73;2.43;;;;;;;;;;4976268;28;20515;-67
2022/01/30 14:58:25;;;;;;;5.27;1.30;;;;;;;;;;4984750;28;20509;-70
2022/01/30 15:00:55;;;;;;;6.80;2.50;;;;;;;;;;4965560;28;20576;-66
2022/01/30 15:03:21;;;;;;;9.17;1.80;;;;;;;;;;4988817;28;20549;-70
2022/01/30 15:05:47;;;;;;;6.30;2.10;;;;;;;;;;4982463;28;20471;-67
2022/01/30 15:08:13;;;;;;;5.63;2.70;;;;;;;;;;4988817;28;20930;-66
2022/01/30 15:10:39;;;;;;;5.10;1.87;;;;;;;;;;4985968;28;20449;-66
2022/01/30 15:13:11;;;;;;;5.80;1.87;;;;;;;;;;4988936;28;20449;-66
2022/01/30 15:15:39;;;;;;;4.30;2.30;;;;;;;;;;4969520;28;20437;-70
2022/01/30 15:18:12;;;;;;;3.00;1.70;;;;;;;;;;4988978;28;20441;-66
2022/01/30 15:20:38;;;;;;;1.83;1.60;;;;;;;;;;4987007;28;20440;-68
2022/01/30 15:23:04;;;;;;;7.17;2.47;;;;;;;;;;4971832;28;20445;-71
2022/01/30 15:25:30;;;;;;;9.30;3.00;;;;;;;;;;4966277;28;20878;-67
2022/01/30 15:27:58;;;;;;;4.03;2.00;;;;;;;;;;4989028;28;20561;-69
2022/01/30 15:30:24;;;;;;;3.30;1.73;;;;;;;;;;4984738;28;20441;-67
2022/01/30 15:32:50;;;;;;;6.20;2.60;;;;;;;;;;4989466;28;20453;-67
2022/01/30 15:35:17;;;;;;;4.23;2.17;;;;;;;;;;4983656;28;20483;-66
2022/01/30 15:37:43;;;;;;;4.53;1.77;;;;;;;;;;4987175;28;20500;-66
2022/01/30 15:40:10;;;;;;;6.10;3.63;;;;;;;;;;4966887;28;20887;-67
2022/01/30 15:42:36;;;;;;;6.50;2.90;;;;;;;;;;4988741;28;20457;-66